sensor_id;sensor_type;location;lat;lon;timestamp;P1;durP1;ratioP1;P2;durP2;ratioP2
13743;SDS011;6943;52.368;9.966;2023-05-14T00:01:11;9.20;;;7.13;;
13743;SDS011;6943;52.368;9.966;2023-05-14T00:03:37;7.67;;;6.97;;
13743;SDS011;6943;52.368;9.966;2023-05-14T00:06:04;7.97;;;7.17;;
13743;SDS011;6943;52.368;9.966;2023-05-14T00:08:30;8.43;;;7.30;;
13743;SDS011;6943;52.368;9.966;2023-05-14T00:10:56;7.77;;;7.10;;
13743;SDS011;6943;52.368;9.966;2023-05-14T00:13:23;8.73;;;7.83;;
13743;SDS011;6943;52.368;9.966;2023-05-14T00:15:48;9.03;;;7.97;;
13743;SDS011;6943;52.368;9.966;2023-05-14T00:18:14;9.00;;;7.47;;
13743;SDS011;6943;52.368;9.966;2023-05-14T00:20:40;8.03;;;7.23;;
13743;SDS011;6943;52.368;9.966;2023-05-14T00:23:06;8.97;;;7.40;;
13743;SDS011;6943;52.368;9.966;2023-05-14T00:25:32;8.40;;;7.60;;
13743;SDS011;6943;52.368;9.966;2023-05-14T00:27:58;8.27;;;7.50;;
13743;SDS011;6943;52.368;9.966;2023-05-14T00:30:24;9.20;;;8.30;;
13743;SDS011;6943;52.368;9.966;2023-05-14T00:32:50;8.37;;;7.40;;
13743;SDS011;6943;52.368;9.966;2023-05-14T00:35:16;8.63;;;7.57;;
13743;SDS011;6943;52.368;9.966;2023-05-14T00:37:42;7.53;;;6.73;;
13743;SDS011;6943;52.368;9.966;2023-05-14T00:40:08;7.70;;;6.90;;
13743;SDS011;6943;52.368;9.966;2023-05-14T00:42:36;7.63;;;6.87;;
13743;SDS011;6943;52.368;9.966;2023-05-14T00:45:02;8.43;;;7.63;;
13743;SDS011;6943;52.368;9.966;2023-05-14T00:47:28;8.97;;;8.07;;
13743;SDS011;6943;52.368;9.966;2023-05-14T00:49:54;8.17;;;7.03;;
13743;SDS011;6943;52.368;9.966;2023-05-14T00:52:20;7.87;;;7.17;;
13743;SDS011;6943;52.368;9.966;2023-05-14T00:54:46;7.57;;;6.43;;
13743;SDS011;6943;52.368;9.966;2023-05-14T00:57:12;7.73;;;6.93;;
13743;SDS011;6943;52.368;9.966;2023-05-14T00:59:38;9.87;;;7.00;;
13743;SDS011;6943;52.368;9.966;2023-05-14T01:02:06;6.87;;;6.27;;
13743;SDS011;6943;52.368;9.966;2023-05-14T01:04:32;8.07;;;6.77;;
13743;SDS011;6943;52.368;9.966;2023-05-14T01:07:11;7.13;;;6.43;;
13743;SDS011;6943;52.368;9.966;2023-05-14T01:09:43;8.60;;;7.13;;
13743;SDS011;6943;52.368;9.966;2023-05-14T01:12:20;7.57;;;6.50;;
13743;SDS011;6943;52.368;9.966;2023-05-14T01:14:58;7.80;;;7.00;;
13743;SDS011;6943;52.368;9.966;2023-05-14T01:17:28;7.50;;;6.73;;
13743;SDS011;6943;52.368;9.966;2023-05-14T01:19:54;7.23;;;6.60;;
13743;SDS011;6943;52.368;9.966;2023-05-14T01:22:21;7.37;;;6.63;;
13743;SDS011;6943;52.368;9.966;2023-05-14T01:24:47;7.67;;;6.97;;
13743;SDS011;6943;52.368;9.966;2023-05-14T01:27:16;6.73;;;6.00;;
13743;SDS011;6943;52.368;9.966;2023-05-14T01:29:44;7.43;;;6.73;;
13743;SDS011;6943;52.368;9.966;2023-05-14T01:32:13;7.83;;;6.50;;
13743;SDS011;6943;52.368;9.966;2023-05-14T01:34:40;7.13;;;6.20;;
13743;SDS011;6943;52.368;9.966;2023-05-14T01:37:06;7.47;;;6.73;;
13743;SDS011;6943;52.368;9.966;2023-05-14T01:39:33;8.37;;;6.47;;
13743;SDS011;6943;52.368;9.966;2023-05-14T01:42:01;6.57;;;5.97;;
13743;SDS011;6943;52.368;9.966;2023-05-14T01:44:27;6.97;;;6.27;;
13743;SDS011;6943;52.368;9.966;2023-05-14T01:46:53;6.73;;;6.13;;
13743;SDS011;6943;52.368;9.966;2023-05-14T01:49:19;7.23;;;6.63;;
13743;SDS011;6943;52.368;9.966;2023-05-14T01:51:45;6.87;;;6.17;;
13743;SDS011;6943;52.368;9.966;2023-05-14T01:54:11;6.47;;;5.87;;
13743;SDS011;6943;52.368;9.966;2023-05-14T01:56:37;7.43;;;6.20;;
13743;SDS011;6943;52.368;9.966;2023-05-14T01:59:03;8.03;;;6.80;;
13743;SDS011;6943;52.368;9.966;2023-05-14T02:01:29;7.40;;;6.80;;
13743;SDS011;6943;52.368;9.966;2023-05-14T02:03:55;6.67;;;6.03;;
13743;SDS011;6943;52.368;9.966;2023-05-14T02:06:21;7.40;;;6.70;;
13743;SDS011;6943;52.368;9.966;2023-05-14T02:08:47;7.03;;;6.43;;
13743;SDS011;6943;52.368;9.966;2023-05-14T02:11:13;7.47;;;5.97;;
13743;SDS011;6943;52.368;9.966;2023-05-14T02:13:39;7.20;;;6.50;;
13743;SDS011;6943;52.368;9.966;2023-05-14T02:16:05;6.60;;;5.97;;
13743;SDS011;6943;52.368;9.966;2023-05-14T02:18:31;6.93;;;5.87;;
13743;SDS011;6943;52.368;9.966;2023-05-14T02:20:57;7.23;;;6.63;;
13743;SDS011;6943;52.368;9.966;2023-05-14T02:23:23;7.70;;;6.67;;
13743;SDS011;6943;52.368;9.966;2023-05-14T02:25:49;7.20;;;6.57;;
13743;SDS011;6943;52.368;9.966;2023-05-14T02:28:15;6.23;;;5.40;;
13743;SDS011;6943;52.368;9.966;2023-05-14T02:30:40;7.37;;;6.60;;
13743;SDS011;6943;52.368;9.966;2023-05-14T02:33:06;6.47;;;5.87;;
13743;SDS011;6943;52.368;9.966;2023-05-14T02:35:32;7.40;;;6.70;;
13743;SDS011;6943;52.368;9.966;2023-05-14T02:37:58;7.33;;;6.70;;
13743;SDS011;6943;52.368;9.966;2023-05-14T02:40:24;9.30;;;7.33;;
13743;SDS011;6943;52.368;9.966;2023-05-14T02:42:50;7.47;;;6.77;;
13743;SDS011;6943;52.368;9.966;2023-05-14T02:45:16;7.50;;;6.80;;
13743;SDS011;6943;52.368;9.966;2023-05-14T02:47:42;8.20;;;7.40;;
13743;SDS011;6943;52.368;9.966;2023-05-14T02:50:08;12.53;;;7.43;;
13743;SDS011;6943;52.368;9.966;2023-05-14T02:52:35;8.17;;;7.37;;
13743;SDS011;6943;52.368;9.966;2023-05-14T02:55:01;7.80;;;7.10;;
13743;SDS011;6943;52.368;9.966;2023-05-14T02:57:27;8.57;;;7.67;;
13743;SDS011;6943;52.368;9.966;2023-05-14T02:59:53;8.03;;;7.23;;
13743;SDS011;6943;52.368;9.966;2023-05-14T03:02:18;9.67;;;7.80;;
13743;SDS011;6943;52.368;9.966;2023-05-14T03:04:44;8.23;;;7.50;;
13743;SDS011;6943;52.368;9.966;2023-05-14T03:07:10;8.27;;;6.80;;
13743;SDS011;6943;52.368;9.966;2023-05-14T03:09:36;8.13;;;7.17;;
13743;SDS011;6943;52.368;9.966;2023-05-14T03:12:02;6.70;;;6.20;;
13743;SDS011;6943;52.368;9.966;2023-05-14T03:14:28;7.50;;;6.80;;
13743;SDS011;6943;52.368;9.966;2023-05-14T03:16:54;8.60;;;7.80;;
13743;SDS011;6943;52.368;9.966;2023-05-14T03:19:20;7.73;;;7.00;;
13743;SDS011;6943;52.368;9.966;2023-05-14T03:21:46;7.87;;;7.10;;
13743;SDS011;6943;52.368;9.966;2023-05-14T03:24:11;8.07;;;7.13;;
13743;SDS011;6943;52.368;9.966;2023-05-14T03:26:37;12.27;;;6.97;;
13743;SDS011;6943;52.368;9.966;2023-05-14T03:29:03;8.50;;;7.70;;
13743;SDS011;6943;52.368;9.966;2023-05-14T03:31:29;8.70;;;7.83;;
13743;SDS011;6943;52.368;9.966;2023-05-14T03:33:55;8.13;;;7.27;;
13743;SDS011;6943;52.368;9.966;2023-05-14T03:36:21;8.10;;;7.37;;
13743;SDS011;6943;52.368;9.966;2023-05-14T03:38:47;8.57;;;7.77;;
13743;SDS011;6943;52.368;9.966;2023-05-14T03:41:13;9.13;;;8.33;;
13743;SDS011;6943;52.368;9.966;2023-05-14T03:43:39;8.40;;;7.60;;
13743;SDS011;6943;52.368;9.966;2023-05-14T03:46:05;8.73;;;7.83;;
13743;SDS011;6943;52.368;9.966;2023-05-14T03:48:30;8.83;;;8.03;;
13743;SDS011;6943;52.368;9.966;2023-05-14T03:50:56;8.80;;;8.00;;
13743;SDS011;6943;52.368;9.966;2023-05-14T03:53:22;8.77;;;7.90;;
13743;SDS011;6943;52.368;9.966;2023-05-14T03:55:48;9.03;;;8.23;;
13743;SDS011;6943;52.368;9.966;2023-05-14T03:58:14;8.20;;;7.40;;
13743;SDS011;6943;52.368;9.966;2023-05-14T04:00:41;7.50;;;6.80;;
13743;SDS011;6943;52.368;9.966;2023-05-14T04:03:07;7.63;;;6.83;;
13743;SDS011;6943;52.368;9.966;2023-05-14T04:05:34;6.43;;;5.77;;
13743;SDS011;6943;52.368;9.966;2023-05-14T04:08:00;6.87;;;6.23;;
13743;SDS011;6943;52.368;9.966;2023-05-14T04:10:26;6.80;;;6.17;;
13743;SDS011;6943;52.368;9.966;2023-05-14T04:12:52;6.23;;;5.73;;
13743;SDS011;6943;52.368;9.966;2023-05-14T04:15:19;6.47;;;5.80;;
13743;SDS011;6943;52.368;9.966;2023-05-14T04:17:45;5.63;;;5.20;;
13743;SDS011;6943;52.368;9.966;2023-05-14T04:20:11;6.33;;;5.83;;
13743;SDS011;6943;52.368;9.966;2023-05-14T04:22:37;5.80;;;5.20;;
13743;SDS011;6943;52.368;9.966;2023-05-14T04:25:03;6.33;;;5.30;;
13743;SDS011;6943;52.368;9.966;2023-05-14T04:27:29;5.90;;;5.40;;
13743;SDS011;6943;52.368;9.966;2023-05-14T04:29:55;5.97;;;5.40;;
13743;SDS011;6943;52.368;9.966;2023-05-14T04:32:20;6.03;;;5.40;;
13743;SDS011;6943;52.368;9.966;2023-05-14T04:34:46;6.00;;;5.50;;
13743;SDS011;6943;52.368;9.966;2023-05-14T04:37:12;5.97;;;5.47;;
13743;SDS011;6943;52.368;9.966;2023-05-14T04:39:38;6.07;;;5.57;;
13743;SDS011;6943;52.368;9.966;2023-05-14T04:42:04;6.17;;;5.57;;
13743;SDS011;6943;52.368;9.966;2023-05-14T04:44:30;6.00;;;5.57;;
13743;SDS011;6943;52.368;9.966;2023-05-14T04:46:56;6.50;;;5.90;;
13743;SDS011;6943;52.368;9.966;2023-05-14T04:49:22;5.50;;;5.00;;
13743;SDS011;6943;52.368;9.966;2023-05-14T04:51:48;8.23;;;5.70;;
13743;SDS011;6943;52.368;9.966;2023-05-14T04:54:14;6.63;;;5.77;;
13743;SDS011;6943;52.368;9.966;2023-05-14T04:56:40;6.23;;;5.67;;
13743;SDS011;6943;52.368;9.966;2023-05-14T04:59:06;5.73;;;5.20;;
13743;SDS011;6943;52.368;9.966;2023-05-14T05:01:32;5.97;;;4.93;;
13743;SDS011;6943;52.368;9.966;2023-05-14T05:03:57;6.03;;;5.53;;
13743;SDS011;6943;52.368;9.966;2023-05-14T05:06:23;6.10;;;5.60;;
13743;SDS011;6943;52.368;9.966;2023-05-14T05:08:49;6.57;;;6.00;;
13743;SDS011;6943;52.368;9.966;2023-05-14T05:11:15;7.37;;;5.60;;
13743;SDS011;6943;52.368;9.966;2023-05-14T05:13:41;5.83;;;5.43;;
13743;SDS011;6943;52.368;9.966;2023-05-14T05:16:07;6.47;;;5.83;;
13743;SDS011;6943;52.368;9.966;2023-05-14T05:18:33;6.27;;;5.77;;
13743;SDS011;6943;52.368;9.966;2023-05-14T05:20:59;7.37;;;6.17;;
13743;SDS011;6943;52.368;9.966;2023-05-14T05:23:25;6.27;;;5.67;;
13743;SDS011;6943;52.368;9.966;2023-05-14T05:25:51;6.50;;;6.00;;
13743;SDS011;6943;52.368;9.966;2023-05-14T05:28:16;6.37;;;5.87;;
13743;SDS011;6943;52.368;9.966;2023-05-14T05:30:42;6.27;;;5.67;;
13743;SDS011;6943;52.368;9.966;2023-05-14T05:33:11;6.33;;;5.73;;
13743;SDS011;6943;52.368;9.966;2023-05-14T05:35:37;6.35;;;5.85;;
13743;SDS011;6943;52.368;9.966;2023-05-14T05:38:03;6.10;;;5.60;;
13743;SDS011;6943;52.368;9.966;2023-05-14T05:40:29;6.63;;;6.03;;
13743;SDS011;6943;52.368;9.966;2023-05-14T05:42:55;6.38;;;5.88;;
13743;SDS011;6943;52.368;9.966;2023-05-14T05:45:21;5.82;;;5.32;;
13743;SDS011;6943;52.368;9.966;2023-05-14T05:47:47;5.93;;;5.43;;
13743;SDS011;6943;52.368;9.966;2023-05-14T05:50:13;5.28;;;4.78;;
13743;SDS011;6943;52.368;9.966;2023-05-14T05:52:39;6.75;;;6.25;;
13743;SDS011;6943;52.368;9.966;2023-05-14T05:55:05;6.00;;;5.50;;
13743;SDS011;6943;52.368;9.966;2023-05-14T05:57:31;5.85;;;5.35;;
13743;SDS011;6943;52.368;9.966;2023-05-14T05:59:57;5.95;;;5.45;;
13743;SDS011;6943;52.368;9.966;2023-05-14T06:02:22;5.43;;;4.95;;
13743;SDS011;6943;52.368;9.966;2023-05-14T06:04:49;6.03;;;5.53;;
13743;SDS011;6943;52.368;9.966;2023-05-14T06:07:14;8.15;;;5.80;;
13743;SDS011;6943;52.368;9.966;2023-05-14T06:09:40;6.47;;;5.80;;
13743;SDS011;6943;52.368;9.966;2023-05-14T06:12:06;6.53;;;5.93;;
13743;SDS011;6943;52.368;9.966;2023-05-14T06:14:32;7.00;;;6.33;;
13743;SDS011;6943;52.368;9.966;2023-05-14T06:16:58;7.97;;;6.15;;
13743;SDS011;6943;52.368;9.966;2023-05-14T06:19:24;6.20;;;5.70;;
13743;SDS011;6943;52.368;9.966;2023-05-14T06:21:50;6.60;;;6.00;;
13743;SDS011;6943;52.368;9.966;2023-05-14T06:24:16;8.07;;;6.88;;
13743;SDS011;6943;52.368;9.966;2023-05-14T06:26:43;6.15;;;5.65;;
13743;SDS011;6943;52.368;9.966;2023-05-14T06:29:09;6.63;;;6.03;;
13743;SDS011;6943;52.368;9.966;2023-05-14T06:31:38;6.23;;;5.63;;
13743;SDS011;6943;52.368;9.966;2023-05-14T06:34:04;7.43;;;6.73;;
13743;SDS011;6943;52.368;9.966;2023-05-14T06:36:30;6.40;;;5.83;;
13743;SDS011;6943;52.368;9.966;2023-05-14T06:38:55;6.22;;;5.72;;
13743;SDS011;6943;52.368;9.966;2023-05-14T06:41:21;5.90;;;5.45;;
13743;SDS011;6943;52.368;9.966;2023-05-14T06:43:47;6.32;;;5.72;;
13743;SDS011;6943;52.368;9.966;2023-05-14T06:46:13;6.65;;;6.05;;
13743;SDS011;6943;52.368;9.966;2023-05-14T06:48:40;5.82;;;5.30;;
13743;SDS011;6943;52.368;9.966;2023-05-14T06:51:05;5.88;;;5.07;;
13743;SDS011;6943;52.368;9.966;2023-05-14T06:53:32;8.25;;;5.78;;
13743;SDS011;6943;52.368;9.966;2023-05-14T06:55:57;6.38;;;5.70;;
13743;SDS011;6943;52.368;9.966;2023-05-14T06:58:24;6.22;;;5.72;;
13743;SDS011;6943;52.368;9.966;2023-05-14T07:00:50;6.80;;;6.20;;
13743;SDS011;6943;52.368;9.966;2023-05-14T07:03:16;6.40;;;5.80;;
13743;SDS011;6943;52.368;9.966;2023-05-14T07:05:42;6.00;;;5.45;;
13743;SDS011;6943;52.368;9.966;2023-05-14T07:08:10;6.40;;;5.90;;
13743;SDS011;6943;52.368;9.966;2023-05-14T07:10:36;6.40;;;5.82;;
13743;SDS011;6943;52.368;9.966;2023-05-14T07:13:03;6.30;;;5.80;;
13743;SDS011;6943;52.368;9.966;2023-05-14T07:15:28;6.85;;;6.25;;
13743;SDS011;6943;52.368;9.966;2023-05-14T07:17:54;7.88;;;5.85;;
13743;SDS011;6943;52.368;9.966;2023-05-14T07:20:20;7.45;;;5.60;;
13743;SDS011;6943;52.368;9.966;2023-05-14T07:22:48;6.80;;;6.22;;
13743;SDS011;6943;52.368;9.966;2023-05-14T07:25:13;5.88;;;5.38;;
13743;SDS011;6943;52.368;9.966;2023-05-14T07:27:39;6.85;;;6.00;;
13743;SDS011;6943;52.368;9.966;2023-05-14T07:30:06;6.07;;;5.63;;
13743;SDS011;6943;52.368;9.966;2023-05-14T07:32:32;5.97;;;5.47;;
13743;SDS011;6943;52.368;9.966;2023-05-14T07:34:58;5.63;;;5.13;;
13743;SDS011;6943;52.368;9.966;2023-05-14T07:37:24;6.05;;;5.55;;
13743;SDS011;6943;52.368;9.966;2023-05-14T07:39:52;6.45;;;5.82;;
13743;SDS011;6943;52.368;9.966;2023-05-14T07:42:18;5.63;;;5.22;;
13743;SDS011;6943;52.368;9.966;2023-05-14T07:44:44;5.50;;;5.00;;
13743;SDS011;6943;52.368;9.966;2023-05-14T07:47:10;5.68;;;5.18;;
13743;SDS011;6943;52.368;9.966;2023-05-14T07:49:36;5.53;;;5.07;;
13743;SDS011;6943;52.368;9.966;2023-05-14T07:52:02;5.03;;;4.53;;
13743;SDS011;6943;52.368;9.966;2023-05-14T07:54:28;5.88;;;5.38;;
13743;SDS011;6943;52.368;9.966;2023-05-14T07:56:54;5.90;;;5.07;;
13743;SDS011;6943;52.368;9.966;2023-05-14T07:59:20;6.43;;;4.47;;
13743;SDS011;6943;52.368;9.966;2023-05-14T08:01:46;5.93;;;4.82;;
13743;SDS011;6943;52.368;9.966;2023-05-14T08:04:12;5.20;;;4.57;;
13743;SDS011;6943;52.368;9.966;2023-05-14T08:06:40;4.55;;;4.15;;
13743;SDS011;6943;52.368;9.966;2023-05-14T08:09:06;5.22;;;4.25;;
13743;SDS011;6943;52.368;9.966;2023-05-14T08:11:32;4.43;;;4.03;;
13743;SDS011;6943;52.368;9.966;2023-05-14T08:13:58;4.60;;;4.20;;
13743;SDS011;6943;52.368;9.966;2023-05-14T08:16:24;4.50;;;4.15;;
13743;SDS011;6943;52.368;9.966;2023-05-14T08:18:50;4.78;;;4.38;;
13743;SDS011;6943;52.368;9.966;2023-05-14T08:21:16;4.75;;;4.35;;
13743;SDS011;6943;52.368;9.966;2023-05-14T08:23:42;4.07;;;3.78;;
13743;SDS011;6943;52.368;9.966;2023-05-14T08:26:08;4.60;;;4.22;;
13743;SDS011;6943;52.368;9.966;2023-05-14T08:28:34;5.20;;;4.80;;
13743;SDS011;6943;52.368;9.966;2023-05-14T08:31:00;4.78;;;4.07;;
13743;SDS011;6943;52.368;9.966;2023-05-14T08:33:26;5.65;;;5.25;;
13743;SDS011;6943;52.368;9.966;2023-05-14T08:35:52;4.85;;;4.45;;
13743;SDS011;6943;52.368;9.966;2023-05-14T08:38:18;5.57;;;4.32;;
13743;SDS011;6943;52.368;9.966;2023-05-14T08:40:55;4.47;;;4.07;;
13743;SDS011;6943;52.368;9.966;2023-05-14T08:43:24;5.03;;;4.43;;
13743;SDS011;6943;52.368;9.966;2023-05-14T08:45:52;4.35;;;4.05;;
13743;SDS011;6943;52.368;9.966;2023-05-14T08:48:18;5.78;;;4.00;;
13743;SDS011;6943;52.368;9.966;2023-05-14T08:50:47;4.50;;;4.20;;
13743;SDS011;6943;52.368;9.966;2023-05-14T08:53:13;5.13;;;4.70;;
13743;SDS011;6943;52.368;9.966;2023-05-14T08:55:39;4.78;;;4.22;;
13743;SDS011;6943;52.368;9.966;2023-05-14T08:58:05;4.30;;;4.00;;
13743;SDS011;6943;52.368;9.966;2023-05-14T09:00:31;5.03;;;3.95;;
13743;SDS011;6943;52.368;9.966;2023-05-14T09:02:57;5.68;;;4.22;;
13743;SDS011;6943;52.368;9.966;2023-05-14T09:05:24;3.97;;;3.65;;
13743;SDS011;6943;52.368;9.966;2023-05-14T09:07:50;4.30;;;3.60;;
13743;SDS011;6943;52.368;9.966;2023-05-14T09:10:16;3.33;;;3.13;;
13743;SDS011;6943;52.368;9.966;2023-05-14T09:12:43;3.88;;;3.58;;
13743;SDS011;6943;52.368;9.966;2023-05-14T09:15:09;4.10;;;3.13;;
13743;SDS011;6943;52.368;9.966;2023-05-14T09:17:34;3.53;;;3.20;;
13743;SDS011;6943;52.368;9.966;2023-05-14T09:20:00;3.60;;;3.30;;
13743;SDS011;6943;52.368;9.966;2023-05-14T09:22:28;3.80;;;3.50;;
13743;SDS011;6943;52.368;9.966;2023-05-14T09:25:03;3.77;;;3.47;;
13743;SDS011;6943;52.368;9.966;2023-05-14T09:27:30;3.50;;;3.20;;
13743;SDS011;6943;52.368;9.966;2023-05-14T09:30:03;5.43;;;3.87;;
13743;SDS011;6943;52.368;9.966;2023-05-14T09:32:34;3.07;;;2.83;;
13743;SDS011;6943;52.368;9.966;2023-05-14T09:35:07;3.93;;;3.40;;
13743;SDS011;6943;52.368;9.966;2023-05-14T09:37:35;3.60;;;2.97;;
13743;SDS011;6943;52.368;9.966;2023-05-14T09:40:07;3.87;;;3.57;;
13743;SDS011;6943;52.368;9.966;2023-05-14T09:42:33;3.60;;;3.30;;
13743;SDS011;6943;52.368;9.966;2023-05-14T09:44:59;5.00;;;3.63;;
13743;SDS011;6943;52.368;9.966;2023-05-14T09:47:25;3.80;;;3.30;;
13743;SDS011;6943;52.368;9.966;2023-05-14T09:49:51;4.57;;;4.13;;
13743;SDS011;6943;52.368;9.966;2023-05-14T09:52:17;4.80;;;3.70;;
13743;SDS011;6943;52.368;9.966;2023-05-14T09:54:43;3.87;;;3.37;;
13743;SDS011;6943;52.368;9.966;2023-05-14T09:57:11;4.00;;;3.60;;
13743;SDS011;6943;52.368;9.966;2023-05-14T09:59:37;5.27;;;3.67;;
13743;SDS011;6943;52.368;9.966;2023-05-14T10:02:03;6.57;;;4.50;;
13743;SDS011;6943;52.368;9.966;2023-05-14T10:04:31;5.10;;;4.17;;
13743;SDS011;6943;52.368;9.966;2023-05-14T10:06:57;6.97;;;4.53;;
13743;SDS011;6943;52.368;9.966;2023-05-14T10:09:24;3.97;;;3.53;;
13743;SDS011;6943;52.368;9.966;2023-05-14T10:11:52;4.77;;;4.37;;
13743;SDS011;6943;52.368;9.966;2023-05-14T10:14:32;4.77;;;4.27;;
13743;SDS011;6943;52.368;9.966;2023-05-14T10:17:00;4.77;;;4.37;;
13743;SDS011;6943;52.368;9.966;2023-05-14T10:19:27;5.13;;;4.30;;
13743;SDS011;6943;52.368;9.966;2023-05-14T10:21:55;4.67;;;4.23;;
13743;SDS011;6943;52.368;9.966;2023-05-14T10:24:22;5.43;;;4.70;;
13743;SDS011;6943;52.368;9.966;2023-05-14T10:26:49;5.20;;;4.70;;
13743;SDS011;6943;52.368;9.966;2023-05-14T10:29:15;5.17;;;4.77;;
13743;SDS011;6943;52.368;9.966;2023-05-14T10:31:48;5.17;;;4.77;;
13743;SDS011;6943;52.368;9.966;2023-05-14T10:34:29;5.10;;;4.70;;
13743;SDS011;6943;52.368;9.966;2023-05-14T10:37:03;5.50;;;5.00;;
13743;SDS011;6943;52.368;9.966;2023-05-14T10:42:07;5.87;;;4.43;;
13743;SDS011;6943;52.368;9.966;2023-05-14T10:44:35;6.63;;;4.73;;
13743;SDS011;6943;52.368;9.966;2023-05-14T10:47:02;4.70;;;4.30;;
13743;SDS011;6943;52.368;9.966;2023-05-14T10:49:28;6.90;;;3.90;;
13743;SDS011;6943;52.368;9.966;2023-05-14T10:51:54;5.60;;;4.53;;
13743;SDS011;6943;52.368;9.966;2023-05-14T10:54:21;5.10;;;4.60;;
13743;SDS011;6943;52.368;9.966;2023-05-14T10:56:48;7.03;;;4.33;;
13743;SDS011;6943;52.368;9.966;2023-05-14T10:59:15;5.37;;;4.20;;
13743;SDS011;6943;52.368;9.966;2023-05-14T11:01:41;5.00;;;4.03;;
13743;SDS011;6943;52.368;9.966;2023-05-14T11:04:07;4.60;;;3.97;;
13743;SDS011;6943;52.368;9.966;2023-05-14T11:06:33;4.80;;;4.10;;
13743;SDS011;6943;52.368;9.966;2023-05-14T11:09:00;4.23;;;3.90;;
13743;SDS011;6943;52.368;9.966;2023-05-14T11:11:27;5.13;;;4.63;;
13743;SDS011;6943;52.368;9.966;2023-05-14T11:13:53;5.07;;;4.00;;
13743;SDS011;6943;52.368;9.966;2023-05-14T11:16:19;4.60;;;4.10;;
13743;SDS011;6943;52.368;9.966;2023-05-14T11:18:47;4.67;;;4.27;;
13743;SDS011;6943;52.368;9.966;2023-05-14T11:21:17;4.70;;;4.30;;
13743;SDS011;6943;52.368;9.966;2023-05-14T11:23:45;6.60;;;4.50;;
13743;SDS011;6943;52.368;9.966;2023-05-14T11:26:11;4.77;;;4.27;;
13743;SDS011;6943;52.368;9.966;2023-05-14T11:28:37;6.20;;;4.30;;
13743;SDS011;6943;52.368;9.966;2023-05-14T11:31:03;9.27;;;4.40;;
13743;SDS011;6943;52.368;9.966;2023-05-14T11:33:29;6.73;;;4.33;;
13743;SDS011;6943;52.368;9.966;2023-05-14T11:35:56;5.80;;;4.57;;
13743;SDS011;6943;52.368;9.966;2023-05-14T11:38:22;8.27;;;4.03;;
13743;SDS011;6943;52.368;9.966;2023-05-14T11:40:51;5.37;;;3.43;;
13743;SDS011;6943;52.368;9.966;2023-05-14T11:43:17;5.83;;;4.10;;
13743;SDS011;6943;52.368;9.966;2023-05-14T11:45:47;4.97;;;3.50;;
13743;SDS011;6943;52.368;9.966;2023-05-14T11:48:14;4.73;;;3.73;;
13743;SDS011;6943;52.368;9.966;2023-05-14T11:50:43;3.60;;;3.30;;
13743;SDS011;6943;52.368;9.966;2023-05-14T11:53:09;4.43;;;3.33;;
13743;SDS011;6943;52.368;9.966;2023-05-14T11:55:35;4.10;;;3.70;;
13743;SDS011;6943;52.368;9.966;2023-05-14T11:58:01;3.70;;;3.40;;
13743;SDS011;6943;52.368;9.966;2023-05-14T12:00:27;4.77;;;3.90;;
13743;SDS011;6943;52.368;9.966;2023-05-14T12:02:53;3.90;;;3.60;;
13743;SDS011;6943;52.368;9.966;2023-05-14T12:05:19;4.63;;;3.73;;
13743;SDS011;6943;52.368;9.966;2023-05-14T12:07:46;3.93;;;3.40;;
13743;SDS011;6943;52.368;9.966;2023-05-14T12:10:12;3.77;;;3.47;;
13743;SDS011;6943;52.368;9.966;2023-05-14T12:12:38;6.37;;;3.90;;
13743;SDS011;6943;52.368;9.966;2023-05-14T12:15:11;5.00;;;3.90;;
13743;SDS011;6943;52.368;9.966;2023-05-14T12:17:48;4.67;;;3.90;;
13743;SDS011;6943;52.368;9.966;2023-05-14T12:20:15;4.87;;;3.30;;
13743;SDS011;6943;52.368;9.966;2023-05-14T12:22:41;6.07;;;4.10;;
13743;SDS011;6943;52.368;9.966;2023-05-14T12:25:11;4.13;;;3.67;;
13743;SDS011;6943;52.368;9.966;2023-05-14T12:27:38;7.20;;;3.73;;
13743;SDS011;6943;52.368;9.966;2023-05-14T12:30:04;4.83;;;3.40;;
13743;SDS011;6943;52.368;9.966;2023-05-14T12:32:31;3.80;;;3.50;;
13743;SDS011;6943;52.368;9.966;2023-05-14T12:34:57;4.80;;;3.73;;
13743;SDS011;6943;52.368;9.966;2023-05-14T12:37:23;4.17;;;3.30;;
13743;SDS011;6943;52.368;9.966;2023-05-14T12:39:50;5.13;;;4.00;;
13743;SDS011;6943;52.368;9.966;2023-05-14T12:42:16;3.90;;;3.60;;
13743;SDS011;6943;52.368;9.966;2023-05-14T12:44:42;4.40;;;4.00;;
13743;SDS011;6943;52.368;9.966;2023-05-14T12:47:07;5.20;;;4.00;;
13743;SDS011;6943;52.368;9.966;2023-05-14T12:49:33;5.17;;;4.10;;
13743;SDS011;6943;52.368;9.966;2023-05-14T12:52:00;6.23;;;3.90;;
13743;SDS011;6943;52.368;9.966;2023-05-14T12:54:26;4.93;;;4.53;;
13743;SDS011;6943;52.368;9.966;2023-05-14T12:56:51;10.03;;;6.80;;
13743;SDS011;6943;52.368;9.966;2023-05-14T12:59:17;6.00;;;3.83;;
13743;SDS011;6943;52.368;9.966;2023-05-14T13:01:43;4.90;;;3.80;;
13743;SDS011;6943;52.368;9.966;2023-05-14T13:04:09;4.40;;;4.00;;
13743;SDS011;6943;52.368;9.966;2023-05-14T13:06:38;3.97;;;3.60;;
13743;SDS011;6943;52.368;9.966;2023-05-14T13:09:05;4.00;;;3.60;;
13743;SDS011;6943;52.368;9.966;2023-05-14T13:11:31;4.40;;;3.77;;
13743;SDS011;6943;52.368;9.966;2023-05-14T13:13:57;6.80;;;3.80;;
13743;SDS011;6943;52.368;9.966;2023-05-14T13:16:26;4.00;;;3.70;;
13743;SDS011;6943;52.368;9.966;2023-05-14T13:18:52;5.07;;;3.70;;
13743;SDS011;6943;52.368;9.966;2023-05-14T13:21:18;4.07;;;3.67;;
13743;SDS011;6943;52.368;9.966;2023-05-14T13:23:44;4.20;;;3.40;;
13743;SDS011;6943;52.368;9.966;2023-05-14T13:26:10;5.33;;;4.30;;
13743;SDS011;6943;52.368;9.966;2023-05-14T13:28:36;5.00;;;3.93;;
13743;SDS011;6943;52.368;9.966;2023-05-14T13:31:03;6.73;;;3.90;;
13743;SDS011;6943;52.368;9.966;2023-05-14T13:33:30;4.50;;;3.97;;
13743;SDS011;6943;52.368;9.966;2023-05-14T13:35:55;4.10;;;3.57;;
13743;SDS011;6943;52.368;9.966;2023-05-14T13:38:21;6.93;;;3.90;;
13743;SDS011;6943;52.368;9.966;2023-05-14T13:40:47;5.83;;;3.83;;
13743;SDS011;6943;52.368;9.966;2023-05-14T13:43:13;5.63;;;4.30;;
13743;SDS011;6943;52.368;9.966;2023-05-14T13:45:40;6.07;;;3.90;;
13743;SDS011;6943;52.368;9.966;2023-05-14T13:48:06;4.00;;;3.60;;
13743;SDS011;6943;52.368;9.966;2023-05-14T13:50:32;4.93;;;3.80;;
13743;SDS011;6943;52.368;9.966;2023-05-14T13:52:58;5.30;;;3.80;;
13743;SDS011;6943;52.368;9.966;2023-05-14T13:55:24;4.00;;;3.60;;
13743;SDS011;6943;52.368;9.966;2023-05-14T13:57:50;4.43;;;3.40;;
13743;SDS011;6943;52.368;9.966;2023-05-14T14:00:16;6.20;;;4.67;;
13743;SDS011;6943;52.368;9.966;2023-05-14T14:02:42;7.67;;;4.80;;
13743;SDS011;6943;52.368;9.966;2023-05-14T14:05:08;5.53;;;5.00;;
13743;SDS011;6943;52.368;9.966;2023-05-14T14:07:34;7.77;;;5.60;;
13743;SDS011;6943;52.368;9.966;2023-05-14T14:10:00;4.97;;;4.30;;
13743;SDS011;6943;52.368;9.966;2023-05-14T14:12:26;7.40;;;5.50;;
13743;SDS011;6943;52.368;9.966;2023-05-14T14:14:52;6.10;;;5.13;;
13743;SDS011;6943;52.368;9.966;2023-05-14T14:17:18;5.53;;;4.90;;
13743;SDS011;6943;52.368;9.966;2023-05-14T14:19:44;4.53;;;4.13;;
13743;SDS011;6943;52.368;9.966;2023-05-14T14:22:10;6.10;;;4.83;;
13743;SDS011;6943;52.368;9.966;2023-05-14T14:24:37;4.93;;;4.53;;
13743;SDS011;6943;52.368;9.966;2023-05-14T14:27:03;5.30;;;4.60;;
13743;SDS011;6943;52.368;9.966;2023-05-14T14:29:29;5.07;;;4.57;;
13743;SDS011;6943;52.368;9.966;2023-05-14T14:31:56;5.03;;;4.00;;
13743;SDS011;6943;52.368;9.966;2023-05-14T14:34:21;4.60;;;4.07;;
13743;SDS011;6943;52.368;9.966;2023-05-14T14:36:47;6.53;;;5.20;;
13743;SDS011;6943;52.368;9.966;2023-05-14T14:39:13;4.60;;;4.17;;
13743;SDS011;6943;52.368;9.966;2023-05-14T14:41:39;4.87;;;4.33;;
13743;SDS011;6943;52.368;9.966;2023-05-14T14:44:05;6.63;;;4.60;;
13743;SDS011;6943;52.368;9.966;2023-05-14T14:46:31;4.77;;;3.80;;
13743;SDS011;6943;52.368;9.966;2023-05-14T14:48:57;4.63;;;3.53;;
13743;SDS011;6943;52.368;9.966;2023-05-14T14:51:23;5.20;;;3.93;;
13743;SDS011;6943;52.368;9.966;2023-05-14T14:53:49;4.70;;;4.30;;
13743;SDS011;6943;52.368;9.966;2023-05-14T14:56:15;4.57;;;3.63;;
13743;SDS011;6943;52.368;9.966;2023-05-14T14:58:41;4.30;;;3.90;;